• Join FlightAware (Why Join?)
  • Login
  • US Flag 
08:08AM EST


 

Airport Tracker/Info


-or-


 

Live Flight TrackerFlight Track Log ✈ AAY861 ✈ 14-Apr-2014 ✈ KLEX - KPIE

Flight Track Log - Related Links

Times and Time Zones

All times are in EDT time to prevent confusion due to time zone crossing. See the AAY861 flight status page for this flight to view local times or setup timezone preferences in your user account.

Time Position Orientation Groundspeed Altitude Reporting Facility
EDT Latitude Longitude Course Direction KTS MPH feet Rate Location/Type
09:34AM 37.9992 -84.6436 171° South 158 182 2,900  Level Indianapolis Center
09:35AM 37.9425 -84.6569 191° South 243 280 5,400 2,419 Climbing Indianapolis Center
09:36AM 37.8783 -84.6272 160° South 241 277 7,900 2,468 Climbing Indianapolis Center
09:37AM 37.7956 -84.6003 166° South 254 292 10,500 1,707 Climbing Indianapolis Center
09:38AM 37.7150 -84.5842 171° South 288 331 11,400 1,512 Climbing Indianapolis Center
09:39AM 37.5491 -84.3531 171° South  Level FlightAware Approximate
09:39AM 37.6181 -84.6008 188° South 337 388 13,600  Level Indianapolis Center
09:40AM 37.5172 -84.6183 188° South 358 412 15,800 2,016 Climbing Indianapolis Center
09:41AM 37.4100 -84.6083 176° South 387 445 17,800 1,935 Climbing Indianapolis Center
09:42AM 37.2981 -84.5700 165° South 407 468 19,800 1,805 Climbing Indianapolis Center
09:43AM 37.1672 -84.5108 160° South 423 487 21,500 1,500 Climbing Indianapolis Center
09:44AM 37.0553 -84.4644 162° South 424 488 22,900 1,113 Climbing Indianapolis Center
09:45AM 36.9394 -84.4231 164° South 427 491 23,800 1,016 Climbing Indianapolis Center
09:46AM 36.8225 -84.3806 164° South 432 497 25,000 1,113 Climbing Indianapolis Center
09:47AM 36.7031 -84.3342 163° South 443 510 26,100 1,210 Climbing Indianapolis Center
09:48AM 36.5667 -84.2792 162° South 445 512 27,500 1,306 Climbing Indianapolis Center
09:49AM 36.4486 -84.2319 162° South 438 504 28,800 1,008 Climbing Indianapolis Center
09:51AM 36.3317 -84.1889 163° South 437 503 29,600 960 Climbing Indianapolis Center
09:52AM 36.2156 -84.1469 164° South 437 503 30,800 823 Climbing Indianapolis Center
09:53AM 36.1019 -84.1036 163° South 431 496 31,300 629 Climbing Indianapolis Center
09:54AM 35.9869 -84.0583 162° South 430 495 32,100 871 Climbing Indianapolis Center
09:55AM 35.8750 -84.0128 162° South 428 493 33,100 446 Climbing Indianapolis Center
09:56AM 35.7578 -83.9747 165° South 426 490 33,000 -50 Descending Atlanta Center
09:57AM 35.6472 -83.9364 164° South 420 483 33,000  Level Atlanta Center
09:58AM 35.5325 -83.8958 164° South 420 483 33,000  Level Atlanta Center
09:59AM 35.4219 -83.8578 164° South 420 483 33,000  Level Atlanta Center
10:00AM 35.3069 -83.8147 158° South 420 483 33,000  Level Atlanta Center
10:01AM 35.2260 -83.7592 158° South  Level FlightAware Approximate
10:01AM 35.1944 -83.7744 164° South 420 483 33,000  Level Atlanta Center
10:02AM 35.0817 -83.7342 164° South 420 483 33,000  Level Atlanta Center
10:03AM 34.9667 -83.6914 163° South 420 483 33,000  Level Atlanta Center
10:04AM 34.8414 -83.6414 162° South 420 483 33,000  Level Atlanta Center
10:05AM 34.7283 -83.5989 163° South 425 489 33,000  Level Atlanta Center
10:06AM 34.6114 -83.5592 164° South 430 495 33,000  Level Atlanta Center
10:07AM 34.4922 -83.5172 164° South 443 510 33,000  Level Atlanta Center
10:13AM 33.8003 -83.2739 166° South 437 503 33,000  Level Atlanta Center
10:14AM 33.6831 -83.2350 165° South 437 503 33,000  Level Atlanta Center
10:15AM 33.5533 -83.1889 163° South 437 503 33,000  Level Atlanta Center
10:16AM 33.4300 -83.1478 164° South 443 510 33,000 150 Level Atlanta Center
10:17AM 33.3106 -83.1067 164° South 450 518 33,300 500 Climbing Atlanta Center
10:18AM 33.1914 -83.0683 165° South 455 524 34,000 350 Climbing Atlanta Center
10:19AM 33.0678 -83.0275 165° South 455 524 34,000  Level Atlanta Center
10:20AM 33.1362 -82.9671 166° South  Level FlightAware Approximate
10:20AM 32.9611 -82.9867 162° South 448 516 34,000  Level Atlanta Center
10:21AM 33.0268 -82.9355 166° South  Level FlightAware Approximate
10:21AM 32.8375 -82.9461 165° South 448 516 34,000  Level Atlanta Center
10:22AM 32.9169 -82.9038 166° South  Level FlightAware Approximate
10:22AM 32.7161 -82.9056 164° South 453 521 34,000  Level Atlanta Center
10:23AM 32.8069 -82.8722 166° South  Level FlightAware Approximate
10:23AM 32.4983 -82.8311 164° South 454 522 34,000  Level Jacksonville Center
10:24AM 32.3794 -82.7892 163° South 454 522 34,000  Level Jacksonville Center
10:25AM 32.2583 -82.7500 165° South 454 522 34,000  Level Jacksonville Center
10:26AM 32.1392 -82.7061 163° South 454 522 34,000  Level Jacksonville Center
10:27AM 32.0139 -82.6672 165° South 454 522 34,000  Level Jacksonville Center
10:28AM 31.8928 -82.6233 163° South 454 522 34,000  Level Jacksonville Center
10:29AM 31.7736 -82.5847 165° South 449 517 34,000  Level Jacksonville Center
10:30AM 31.6483 -82.5436 164° South 449 517 34,000  Level Jacksonville Center
10:31AM 31.5250 -82.5075 166° South 455 524 34,000  Level Jacksonville Center
10:32AM 31.4039 -82.4958 175° South 450 518 34,000  Level Jacksonville Center
10:33AM 31.2764 -82.4939 179° South 450 518 34,000  Level Jacksonville Center
10:34AM 31.1533 -82.4872 177° South 450 518 34,000  Level Jacksonville Center
10:35AM 31.0300 -82.4731 174° South 445 512 34,000  Level Jacksonville Center
10:36AM 30.9067 -82.4592 174° South 445 512 34,000  Level Jacksonville Center
10:37AM 30.7856 -82.4525 177° South 445 512 34,000  Level Jacksonville Center
10:38AM 30.6603 -82.4433 176° South 445 512 34,000  Level Jacksonville Center
10:39AM 30.5372 -82.4344 176° South 445 512 34,000  Level Jacksonville Center
10:40AM 30.4161 -82.4253 176° South 445 512 34,000  Level Jacksonville Center
10:41AM 30.2906 -82.4161 176° South 445 512 34,000  Level Jacksonville Center
10:42AM 30.1694 -82.4072 176° South 445 512 34,000  Level Jacksonville Center
10:43AM 30.0442 -82.3983 176° South 445 512 34,000 -400 Level Jacksonville Center
10:44AM 29.9211 -82.3869 175° South 445 512 33,200 -1,450 Descending Jacksonville Center
10:45AM 29.7978 -82.3781 176° South 445 512 31,100 -2,750 Descending Jacksonville Center
10:46AM 29.6558 -82.3692 177° South 452 520 27,700 -2,850 Descending Jacksonville Center
10:47AM 29.5325 -82.3578 175° South 457 526 25,400 -2,250 Descending Jacksonville Center
10:48AM 29.4114 -82.3419 174° South 457 526 23,200 -2,200 Descending Jacksonville Center
10:49AM 29.2967 -82.3283 174° South 435 501 21,000 -2,100 Descending Jacksonville Center
10:50AM 29.1858 -82.3147 174° South 422 486 19,000 -1,900 Descending Jacksonville Center
10:51AM 29.0772 -82.3033 175° South 412 474 17,200 -1,800 Descending Jacksonville Center
10:52AM 28.9686 -82.2922 175° South 399 459 15,400 -1,750 Descending Jacksonville Center
10:53AM 28.8600 -82.2714 170° South 399 459 13,700 -1,091 Descending Jacksonville Center
10:56AM 28.6667 -82.2667 179° South 294 338 12,000 -1,059 Descending Tampa TRACON
10:57AM 28.6167 -82.3167 221° Southwest 300 345 10,400 -952 Descending Tampa TRACON
10:58AM 28.6000 -82.4167 259° West 279 321 10,000 -190 Descending Tampa TRACON
10:59AM 28.6000 -82.5000 270° West 269 310 10,000 -893 Level Tampa TRACON
11:00AM 28.5500 -82.5667 230° Southwest 276 318 8,200 -1,722 Descending Tampa TRACON
11:01AM 28.5000 -82.6167 221° Southwest 277 319 6,700 -1,526 Descending Tampa TRACON
11:02AM 28.4333 -82.6833 221° Southwest 267 307 5,300 -1,550 Descending Tampa TRACON
11:03AM 28.4000 -82.7333 233° Southwest 259 298 3,600 -1,095 Descending Tampa TRACON
11:04AM 28.3333 -82.7667 204° Southwest 239 275 3,000 -286 Descending Tampa TRACON
11:05AM 28.2667 -82.7500 168° South 233 268 3,000 53 Level Tampa TRACON
11:06AM 28.2000 -82.7333 168° South 236 272 3,100  Climbing Tampa TRACON
11:07AM 28.1333 -82.7333 180° South 240 276 3,000 -100 Descending Tampa TRACON
11:08AM 28.0667 -82.7167 168° South 240 276 2,900 -632 Descending Tampa TRACON
11:09AM 28.0167 -82.7000 164° South 215 247 1,800 -1,041 Descending Tampa TRACON
11:10AM 27.9667 -82.7000 180° South 152 175 800 -984 Descending Tampa TRACON